sensor_id;sensor_type;location;lat;lon;timestamp;temperature;humidity
47779;DHT22;33538;48.432;11.350;2023-05-31T00:00:15;18.20;50.80
47779;DHT22;33538;48.432;11.350;2023-05-31T00:02:42;18.20;50.60
47779;DHT22;33538;48.432;11.350;2023-05-31T00:05:11;18.20;50.90
47779;DHT22;33538;48.432;11.350;2023-05-31T00:07:37;18.20;50.70
47779;DHT22;33538;48.432;11.350;2023-05-31T00:10:05;18.10;50.60
47779;DHT22;33538;48.432;11.350;2023-05-31T00:12:32;18.10;50.60
47779;DHT22;33538;48.432;11.350;2023-05-31T00:14:59;18.10;50.50
47779;DHT22;33538;48.432;11.350;2023-05-31T00:17:27;18.10;51.60
47779;DHT22;33538;48.432;11.350;2023-05-31T00:19:57;18.10;50.50
47779;DHT22;33538;48.432;11.350;2023-05-31T00:22:25;18.00;50.80
47779;DHT22;33538;48.432;11.350;2023-05-31T00:28:20;18.00;50.60
47779;DHT22;33538;48.432;11.350;2023-05-31T00:30:47;17.90;50.30
47779;DHT22;33538;48.432;11.350;2023-05-31T00:33:13;17.90;50.30
47779;DHT22;33538;48.432;11.350;2023-05-31T00:35:40;18.00;50.90
47779;DHT22;33538;48.432;11.350;2023-05-31T00:38:08;17.90;50.20
47779;DHT22;33538;48.432;11.350;2023-05-31T00:40:35;18.00;50.30
47779;DHT22;33538;48.432;11.350;2023-05-31T00:43:02;18.00;50.20
47779;DHT22;33538;48.432;11.350;2023-05-31T00:45:28;18.00;50.10
47779;DHT22;33538;48.432;11.350;2023-05-31T00:47:55;17.80;50.00
47779;DHT22;33538;48.432;11.350;2023-05-31T00:50:23;17.80;50.00
47779;DHT22;33538;48.432;11.350;2023-05-31T00:52:51;17.70;50.20
47779;DHT22;33538;48.432;11.350;2023-05-31T00:55:21;17.70;50.20
47779;DHT22;33538;48.432;11.350;2023-05-31T00:57:48;17.60;50.50
47779;DHT22;33538;48.432;11.350;2023-05-31T01:00:15;17.60;50.30
47779;DHT22;33538;48.432;11.350;2023-05-31T01:02:42;17.50;50.30
47779;DHT22;33538;48.432;11.350;2023-05-31T01:05:09;17.50;50.50
47779;DHT22;33538;48.432;11.350;2023-05-31T01:07:37;17.60;50.40
47779;DHT22;33538;48.432;11.350;2023-05-31T01:10:05;17.60;50.00
47779;DHT22;33538;48.432;11.350;2023-05-31T01:12:41;17.50;50.40
47779;DHT22;33538;48.432;11.350;2023-05-31T01:15:13;17.60;50.40
47779;DHT22;33538;48.432;11.350;2023-05-31T01:17:46;17.60;50.30
47779;DHT22;33538;48.432;11.350;2023-05-31T01:20:15;17.50;50.20
47779;DHT22;33538;48.432;11.350;2023-05-31T01:22:52;17.50;50.20
47779;DHT22;33538;48.432;11.350;2023-05-31T01:28:34;17.40;50.40
47779;DHT22;33538;48.432;11.350;2023-05-31T01:31:04;17.40;50.60
47779;DHT22;33538;48.432;11.350;2023-05-31T01:33:33;17.40;50.30
47779;DHT22;33538;48.432;11.350;2023-05-31T01:36:00;17.50;50.80
47779;DHT22;33538;48.432;11.350;2023-05-31T01:38:27;17.60;50.50
47779;DHT22;33538;48.432;11.350;2023-05-31T01:40:55;17.30;50.80
47779;DHT22;33538;48.432;11.350;2023-05-31T01:43:22;17.30;50.80
47779;DHT22;33538;48.432;11.350;2023-05-31T01:45:51;17.30;50.90
47779;DHT22;33538;48.432;11.350;2023-05-31T01:48:19;17.30;50.90
47779;DHT22;33538;48.432;11.350;2023-05-31T01:50:46;17.30;50.80
47779;DHT22;33538;48.432;11.350;2023-05-31T01:53:13;17.10;51.00
47779;DHT22;33538;48.432;11.350;2023-05-31T01:55:39;17.10;51.10
47779;DHT22;33538;48.432;11.350;2023-05-31T01:58:07;17.10;51.00
47779;DHT22;33538;48.432;11.350;2023-05-31T02:00:35;17.20;50.90
47779;DHT22;33538;48.432;11.350;2023-05-31T02:03:03;17.20;51.00
47779;DHT22;33538;48.432;11.350;2023-05-31T02:05:31;17.10;50.80
47779;DHT22;33538;48.432;11.350;2023-05-31T02:07:57;17.10;50.90
47779;DHT22;33538;48.432;11.350;2023-05-31T02:10:24;17.20;50.80
47779;DHT22;33538;48.432;11.350;2023-05-31T02:12:51;17.10;50.80
47779;DHT22;33538;48.432;11.350;2023-05-31T02:15:18;17.10;50.80
47779;DHT22;33538;48.432;11.350;2023-05-31T02:17:45;17.00;51.00
47779;DHT22;33538;48.432;11.350;2023-05-31T02:20:14;17.00;50.90
47779;DHT22;33538;48.432;11.350;2023-05-31T02:22:41;17.00;51.10
47779;DHT22;33538;48.432;11.350;2023-05-31T02:25:09;17.00;51.10
47779;DHT22;33538;48.432;11.350;2023-05-31T02:27:36;16.80;51.20
47779;DHT22;33538;48.432;11.350;2023-05-31T02:30:04;17.00;51.30
47779;DHT22;33538;48.432;11.350;2023-05-31T02:32:31;16.90;51.20
47779;DHT22;33538;48.432;11.350;2023-05-31T02:34:58;16.90;51.40
47779;DHT22;33538;48.432;11.350;2023-05-31T02:37:26;16.90;51.20
47779;DHT22;33538;48.432;11.350;2023-05-31T02:39:52;16.90;51.60
47779;DHT22;33538;48.432;11.350;2023-05-31T02:42:19;16.90;51.40
47779;DHT22;33538;48.432;11.350;2023-05-31T02:44:46;16.90;51.40
47779;DHT22;33538;48.432;11.350;2023-05-31T02:47:13;16.90;51.40
47779;DHT22;33538;48.432;11.350;2023-05-31T02:49:40;16.90;51.70
47779;DHT22;33538;48.432;11.350;2023-05-31T02:52:07;16.70;51.70
47779;DHT22;33538;48.432;11.350;2023-05-31T02:54:35;16.70;52.00
47779;DHT22;33538;48.432;11.350;2023-05-31T02:57:02;16.70;51.80
47779;DHT22;33538;48.432;11.350;2023-05-31T02:59:29;16.60;52.10
47779;DHT22;33538;48.432;11.350;2023-05-31T03:01:55;16.80;52.30
47779;DHT22;33538;48.432;11.350;2023-05-31T03:04:22;16.50;52.00
47779;DHT22;33538;48.432;11.350;2023-05-31T03:06:49;16.70;52.30
47779;DHT22;33538;48.432;11.350;2023-05-31T03:09:16;16.80;52.10
47779;DHT22;33538;48.432;11.350;2023-05-31T03:11:44;16.90;52.00
47779;DHT22;33538;48.432;11.350;2023-05-31T03:14:11;16.90;51.80
47779;DHT22;33538;48.432;11.350;2023-05-31T03:16:38;16.90;51.80
47779;DHT22;33538;48.432;11.350;2023-05-31T03:19:05;16.90;51.80
47779;DHT22;33538;48.432;11.350;2023-05-31T03:21:32;17.00;52.00
47779;DHT22;33538;48.432;11.350;2023-05-31T03:23:58;16.80;51.70
47779;DHT22;33538;48.432;11.350;2023-05-31T03:26:25;16.70;52.40
47779;DHT22;33538;48.432;11.350;2023-05-31T03:28:53;16.70;52.20
47779;DHT22;33538;48.432;11.350;2023-05-31T03:31:20;16.50;52.30
47779;DHT22;33538;48.432;11.350;2023-05-31T03:33:47;16.50;52.40
47779;DHT22;33538;48.432;11.350;2023-05-31T03:36:14;16.60;52.60
47779;DHT22;33538;48.432;11.350;2023-05-31T03:38:41;16.60;52.20
47779;DHT22;33538;48.432;11.350;2023-05-31T03:41:07;16.60;52.80
47779;DHT22;33538;48.432;11.350;2023-05-31T03:43:34;16.60;52.50
47779;DHT22;33538;48.432;11.350;2023-05-31T03:46:02;16.50;52.70
47779;DHT22;33538;48.432;11.350;2023-05-31T03:48:30;16.40;53.10
47779;DHT22;33538;48.432;11.350;2023-05-31T03:50:57;16.50;53.30
47779;DHT22;33538;48.432;11.350;2023-05-31T03:53:24;16.50;53.50
47779;DHT22;33538;48.432;11.350;2023-05-31T03:55:51;16.30;53.20
47779;DHT22;33538;48.432;11.350;2023-05-31T03:58:18;16.40;53.40
47779;DHT22;33538;48.432;11.350;2023-05-31T04:00:45;16.40;53.20
47779;DHT22;33538;48.432;11.350;2023-05-31T04:03:13;16.60;53.20
47779;DHT22;33538;48.432;11.350;2023-05-31T04:05:41;16.50;53.30
47779;DHT22;33538;48.432;11.350;2023-05-31T04:08:07;16.60;53.40
47779;DHT22;33538;48.432;11.350;2023-05-31T04:10:34;16.70;53.70
47779;DHT22;33538;48.432;11.350;2023-05-31T04:13:01;16.70;53.60
47779;DHT22;33538;48.432;11.350;2023-05-31T04:15:28;16.60;53.40
47779;DHT22;33538;48.432;11.350;2023-05-31T04:17:55;16.40;53.60
47779;DHT22;33538;48.432;11.350;2023-05-31T04:20:23;16.30;54.00
47779;DHT22;33538;48.432;11.350;2023-05-31T04:22:50;16.20;54.20
47779;DHT22;33538;48.432;11.350;2023-05-31T04:25:16;16.20;54.40
47779;DHT22;33538;48.432;11.350;2023-05-31T04:27:43;16.30;54.40
47779;DHT22;33538;48.432;11.350;2023-05-31T04:30:10;16.30;54.10
47779;DHT22;33538;48.432;11.350;2023-05-31T04:32:38;16.40;54.20
47779;DHT22;33538;48.432;11.350;2023-05-31T04:35:05;16.50;54.30
47779;DHT22;33538;48.432;11.350;2023-05-31T04:37:34;16.30;54.50
47779;DHT22;33538;48.432;11.350;2023-05-31T04:40:04;16.40;54.70
47779;DHT22;33538;48.432;11.350;2023-05-31T04:42:31;16.40;54.40
47779;DHT22;33538;48.432;11.350;2023-05-31T04:44:58;16.40;54.70
47779;DHT22;33538;48.432;11.350;2023-05-31T04:47:25;16.30;54.90
47779;DHT22;33538;48.432;11.350;2023-05-31T04:49:52;16.30;55.10
47779;DHT22;33538;48.432;11.350;2023-05-31T04:52:21;16.30;55.00
47779;DHT22;33538;48.432;11.350;2023-05-31T04:54:49;16.50;55.00
47779;DHT22;33538;48.432;11.350;2023-05-31T04:57:16;16.40;54.60
47779;DHT22;33538;48.432;11.350;2023-05-31T04:59:45;16.50;54.70
47779;DHT22;33538;48.432;11.350;2023-05-31T05:02:12;16.50;54.90
47779;DHT22;33538;48.432;11.350;2023-05-31T05:04:39;16.40;55.20
47779;DHT22;33538;48.432;11.350;2023-05-31T05:07:06;16.40;55.20
47779;DHT22;33538;48.432;11.350;2023-05-31T05:09:32;16.50;55.20
47779;DHT22;33538;48.432;11.350;2023-05-31T05:12:01;16.50;55.20
47779;DHT22;33538;48.432;11.350;2023-05-31T05:14:27;16.60;55.20
47779;DHT22;33538;48.432;11.350;2023-05-31T05:16:54;16.50;55.50
47779;DHT22;33538;48.432;11.350;2023-05-31T05:19:21;16.50;55.30
47779;DHT22;33538;48.432;11.350;2023-05-31T05:21:48;16.50;55.60
47779;DHT22;33538;48.432;11.350;2023-05-31T05:24:15;16.60;55.60
47779;DHT22;33538;48.432;11.350;2023-05-31T05:26:42;16.70;55.40
47779;DHT22;33538;48.432;11.350;2023-05-31T05:29:10;16.70;55.30
47779;DHT22;33538;48.432;11.350;2023-05-31T05:31:36;16.80;55.70
47779;DHT22;33538;48.432;11.350;2023-05-31T05:34:03;16.80;55.30
47779;DHT22;33538;48.432;11.350;2023-05-31T05:36:30;16.90;55.30
47779;DHT22;33538;48.432;11.350;2023-05-31T05:38:57;16.80;55.70
47779;DHT22;33538;48.432;11.350;2023-05-31T05:41:24;16.90;55.70
47779;DHT22;33538;48.432;11.350;2023-05-31T05:43:50;16.90;55.60
47779;DHT22;33538;48.432;11.350;2023-05-31T05:46:18;17.00;55.20
47779;DHT22;33538;48.432;11.350;2023-05-31T05:48:45;17.00;55.50
47779;DHT22;33538;48.432;11.350;2023-05-31T05:51:12;17.00;55.50
47779;DHT22;33538;48.432;11.350;2023-05-31T05:53:39;17.00;55.90
47779;DHT22;33538;48.432;11.350;2023-05-31T05:56:06;17.00;55.70
47779;DHT22;33538;48.432;11.350;2023-05-31T05:58:32;17.10;55.50
47779;DHT22;33538;48.432;11.350;2023-05-31T06:00:59;17.10;55.20
47779;DHT22;33538;48.432;11.350;2023-05-31T06:03:28;17.20;55.20
47779;DHT22;33538;48.432;11.350;2023-05-31T06:05:54;17.20;55.20
47779;DHT22;33538;48.432;11.350;2023-05-31T06:08:21;17.20;55.20
47779;DHT22;33538;48.432;11.350;2023-05-31T06:10:48;17.20;55.20
47779;DHT22;33538;48.432;11.350;2023-05-31T06:13:15;17.30;55.10
47779;DHT22;33538;48.432;11.350;2023-05-31T06:15:42;17.30;55.10
47779;DHT22;33538;48.432;11.350;2023-05-31T06:18:09;17.30;55.20
47779;DHT22;33538;48.432;11.350;2023-05-31T06:20:37;17.30;55.30
47779;DHT22;33538;48.432;11.350;2023-05-31T06:23:03;17.40;55.30
47779;DHT22;33538;48.432;11.350;2023-05-31T06:25:30;17.30;55.40
47779;DHT22;33538;48.432;11.350;2023-05-31T06:27:57;17.40;55.40
47779;DHT22;33538;48.432;11.350;2023-05-31T06:30:24;17.40;55.30
47779;DHT22;33538;48.432;11.350;2023-05-31T06:32:51;17.40;55.50
47779;DHT22;33538;48.432;11.350;2023-05-31T06:35:18;17.40;55.30
47779;DHT22;33538;48.432;11.350;2023-05-31T06:37:46;17.50;55.50
47779;DHT22;33538;48.432;11.350;2023-05-31T06:40:12;17.50;55.80
47779;DHT22;33538;48.432;11.350;2023-05-31T06:42:39;17.50;55.80
47779;DHT22;33538;48.432;11.350;2023-05-31T06:45:07;17.50;55.90
47779;DHT22;33538;48.432;11.350;2023-05-31T06:47:34;17.50;55.80
47779;DHT22;33538;48.432;11.350;2023-05-31T06:50:01;17.60;55.80
47779;DHT22;33538;48.432;11.350;2023-05-31T06:52:27;17.60;55.80
47779;DHT22;33538;48.432;11.350;2023-05-31T06:54:55;17.60;55.90
47779;DHT22;33538;48.432;11.350;2023-05-31T06:57:22;17.60;55.90
47779;DHT22;33538;48.432;11.350;2023-05-31T06:59:49;17.70;56.10
47779;DHT22;33538;48.432;11.350;2023-05-31T07:02:16;17.70;56.00
47779;DHT22;33538;48.432;11.350;2023-05-31T07:04:43;17.70;56.00
47779;DHT22;33538;48.432;11.350;2023-05-31T07:07:09;17.80;56.00
47779;DHT22;33538;48.432;11.350;2023-05-31T07:09:36;17.80;56.00
47779;DHT22;33538;48.432;11.350;2023-05-31T07:12:05;17.80;56.00
47779;DHT22;33538;48.432;11.350;2023-05-31T07:14:32;17.90;56.00
47779;DHT22;33538;48.432;11.350;2023-05-31T07:16:59;17.90;56.00
47779;DHT22;33538;48.432;11.350;2023-05-31T07:19:28;17.90;56.00
47779;DHT22;33538;48.432;11.350;2023-05-31T07:21:55;17.90;56.10
47779;DHT22;33538;48.432;11.350;2023-05-31T07:24:21;18.00;56.00
47779;DHT22;33538;48.432;11.350;2023-05-31T07:26:48;18.00;56.20
47779;DHT22;33538;48.432;11.350;2023-05-31T07:29:16;18.00;56.20
47779;DHT22;33538;48.432;11.350;2023-05-31T07:31:43;18.00;56.20
47779;DHT22;33538;48.432;11.350;2023-05-31T07:34:10;18.10;56.20
47779;DHT22;33538;48.432;11.350;2023-05-31T07:36:37;18.10;56.40
47779;DHT22;33538;48.432;11.350;2023-05-31T07:39:03;18.10;56.40
47779;DHT22;33538;48.432;11.350;2023-05-31T07:41:30;18.20;56.40
47779;DHT22;33538;48.432;11.350;2023-05-31T07:43:57;18.20;56.50
47779;DHT22;33538;48.432;11.350;2023-05-31T07:46:25;18.20;56.50
47779;DHT22;33538;48.432;11.350;2023-05-31T07:48:52;18.20;56.60
47779;DHT22;33538;48.432;11.350;2023-05-31T07:51:19;18.20;56.50
47779;DHT22;33538;48.432;11.350;2023-05-31T07:53:46;18.30;56.70
47779;DHT22;33538;48.432;11.350;2023-05-31T07:56:13;18.30;56.80
47779;DHT22;33538;48.432;11.350;2023-05-31T07:58:40;18.30;56.80
47779;DHT22;33538;48.432;11.350;2023-05-31T08:01:06;18.30;56.90
47779;DHT22;33538;48.432;11.350;2023-05-31T08:03:35;18.40;56.80
47779;DHT22;33538;48.432;11.350;2023-05-31T08:06:02;18.40;56.90
47779;DHT22;33538;48.432;11.350;2023-05-31T08:08:28;18.40;57.00
47779;DHT22;33538;48.432;11.350;2023-05-31T08:10:55;18.40;57.10
47779;DHT22;33538;48.432;11.350;2023-05-31T08:13:22;18.40;57.00
47779;DHT22;33538;48.432;11.350;2023-05-31T08:15:49;18.50;57.10
47779;DHT22;33538;48.432;11.350;2023-05-31T08:18:16;18.50;57.10
47779;DHT22;33538;48.432;11.350;2023-05-31T08:20:44;18.50;57.00
47779;DHT22;33538;48.432;11.350;2023-05-31T08:23:16;18.50;57.10
47779;DHT22;33538;48.432;11.350;2023-05-31T08:25:43;18.60;57.10
47779;DHT22;33538;48.432;11.350;2023-05-31T08:28:10;18.60;57.10
47779;DHT22;33538;48.432;11.350;2023-05-31T08:30:37;18.60;57.30
47779;DHT22;33538;48.432;11.350;2023-05-31T08:33:04;18.70;57.30
47779;DHT22;33538;48.432;11.350;2023-05-31T08:35:31;18.70;57.30
47779;DHT22;33538;48.432;11.350;2023-05-31T08:37:59;18.70;57.20
47779;DHT22;33538;48.432;11.350;2023-05-31T08:40:26;18.70;57.30
47779;DHT22;33538;48.432;11.350;2023-05-31T08:42:58;18.80;57.30
47779;DHT22;33538;48.432;11.350;2023-05-31T08:45:26;18.80;57.40
47779;DHT22;33538;48.432;11.350;2023-05-31T08:48:00;18.80;57.40
47779;DHT22;33538;48.432;11.350;2023-05-31T08:50:28;18.80;57.40
47779;DHT22;33538;48.432;11.350;2023-05-31T08:52:56;18.80;57.40
47779;DHT22;33538;48.432;11.350;2023-05-31T08:55:25;18.90;57.50
47779;DHT22;33538;48.432;11.350;2023-05-31T08:57:53;18.90;57.60
47779;DHT22;33538;48.432;11.350;2023-05-31T09:00:20;18.90;57.60
47779;DHT22;33538;48.432;11.350;2023-05-31T09:02:48;19.00;57.70
47779;DHT22;33538;48.432;11.350;2023-05-31T09:05:15;19.00;57.70
47779;DHT22;33538;48.432;11.350;2023-05-31T09:07:42;19.00;57.70
47779;DHT22;33538;48.432;11.350;2023-05-31T09:10:09;19.00;57.80
47779;DHT22;33538;48.432;11.350;2023-05-31T09:12:38;19.00;57.70
47779;DHT22;33538;48.432;11.350;2023-05-31T09:15:06;19.10;57.80
47779;DHT22;33538;48.432;11.350;2023-05-31T09:17:33;19.10;57.70
47779;DHT22;33538;48.432;11.350;2023-05-31T09:20:01;19.20;57.80
47779;DHT22;33538;48.432;11.350;2023-05-31T09:22:28;19.20;57.60
47779;DHT22;33538;48.432;11.350;2023-05-31T09:24:56;19.20;57.40
47779;DHT22;33538;48.432;11.350;2023-05-31T09:27:23;19.20;57.60
47779;DHT22;33538;48.432;11.350;2023-05-31T09:29:54;19.20;57.80
47779;DHT22;33538;48.432;11.350;2023-05-31T09:32:21;19.20;57.80
47779;DHT22;33538;48.432;11.350;2023-05-31T09:34:48;19.30;57.70
47779;DHT22;33538;48.432;11.350;2023-05-31T09:37:21;19.30;57.60
47779;DHT22;33538;48.432;11.350;2023-05-31T09:39:54;19.40;57.60
47779;DHT22;33538;48.432;11.350;2023-05-31T09:42:22;19.40;57.90
47779;DHT22;33538;48.432;11.350;2023-05-31T09:44:50;19.40;58.00
47779;DHT22;33538;48.432;11.350;2023-05-31T09:47:22;19.40;58.00
47779;DHT22;33538;48.432;11.350;2023-05-31T09:49:49;19.40;58.10
47779;DHT22;33538;48.432;11.350;2023-05-31T09:52:16;19.40;58.10
47779;DHT22;33538;48.432;11.350;2023-05-31T09:54:43;19.40;58.00
47779;DHT22;33538;48.432;11.350;2023-05-31T09:57:28;19.50;58.00
47779;DHT22;33538;48.432;11.350;2023-05-31T09:59:56;19.50;58.00
47779;DHT22;33538;48.432;11.350;2023-05-31T10:02:25;19.50;58.50
47779;DHT22;33538;48.432;11.350;2023-05-31T10:04:53;19.50;57.90
47779;DHT22;33538;48.432;11.350;2023-05-31T10:07:20;19.50;57.80
47779;DHT22;33538;48.432;11.350;2023-05-31T10:09:48;19.50;57.80
47779;DHT22;33538;48.432;11.350;2023-05-31T10:12:17;19.60;57.80
47779;DHT22;33538;48.432;11.350;2023-05-31T10:14:51;19.60;57.70
47779;DHT22;33538;48.432;11.350;2023-05-31T10:17:24;19.60;57.50
47779;DHT22;33538;48.432;11.350;2023-05-31T10:19:58;19.60;57.50
47779;DHT22;33538;48.432;11.350;2023-05-31T10:22:29;19.60;57.40
47779;DHT22;33538;48.432;11.350;2023-05-31T10:25:02;19.60;57.40
47779;DHT22;33538;48.432;11.350;2023-05-31T10:27:34;19.70;57.40
47779;DHT22;33538;48.432;11.350;2023-05-31T10:30:03;19.70;57.40
47779;DHT22;33538;48.432;11.350;2023-05-31T10:32:36;19.70;57.50
47779;DHT22;33538;48.432;11.350;2023-05-31T10:35:06;19.70;57.40
47779;DHT22;33538;48.432;11.350;2023-05-31T10:37:33;19.70;57.50
47779;DHT22;33538;48.432;11.350;2023-05-31T10:40:03;19.80;57.50
47779;DHT22;33538;48.432;11.350;2023-05-31T10:42:37;19.80;57.60
47779;DHT22;33538;48.432;11.350;2023-05-31T10:45:12;19.80;57.40
47779;DHT22;33538;48.432;11.350;2023-05-31T10:47:45;19.90;57.50
47779;DHT22;33538;48.432;11.350;2023-05-31T10:50:18;19.90;57.30
47779;DHT22;33538;48.432;11.350;2023-05-31T10:52:46;19.90;57.30
47779;DHT22;33538;48.432;11.350;2023-05-31T10:55:18;19.90;57.20
47779;DHT22;33538;48.432;11.350;2023-05-31T10:57:49;19.90;57.20
47779;DHT22;33538;48.432;11.350;2023-05-31T11:00:19;19.90;57.20
47779;DHT22;33538;48.432;11.350;2023-05-31T11:02:49;20.00;57.20
47779;DHT22;33538;48.432;11.350;2023-05-31T11:05:20;20.00;56.20
47779;DHT22;33538;48.432;11.350;2023-05-31T11:07:50;20.10;56.00
47779;DHT22;33538;48.432;11.350;2023-05-31T11:10:25;20.20;55.20
47779;DHT22;33538;48.432;11.350;2023-05-31T11:12:52;20.10;56.00
47779;DHT22;33538;48.432;11.350;2023-05-31T11:15:18;20.10;56.20
47779;DHT22;33538;48.432;11.350;2023-05-31T11:17:54;20.20;55.10
47779;DHT22;33538;48.432;11.350;2023-05-31T11:20:21;20.20;54.90
47779;DHT22;33538;48.432;11.350;2023-05-31T11:26:09;20.20;55.80
47779;DHT22;33538;48.432;11.350;2023-05-31T11:28:56;20.20;55.60
47779;DHT22;33538;48.432;11.350;2023-05-31T11:31:59;20.30;55.50
47779;DHT22;33538;48.432;11.350;2023-05-31T11:34:28;20.30;55.60
47779;DHT22;33538;48.432;11.350;2023-05-31T11:36:57;20.20;55.80
47779;DHT22;33538;48.432;11.350;2023-05-31T11:39:25;20.20;56.00
47779;DHT22;33538;48.432;11.350;2023-05-31T11:41:54;20.20;56.20
47779;DHT22;33538;48.432;11.350;2023-05-31T11:44:26;20.20;56.20
47779;DHT22;33538;48.432;11.350;2023-05-31T11:47:00;20.30;56.30
47779;DHT22;33538;48.432;11.350;2023-05-31T11:49:29;20.30;56.10
47779;DHT22;33538;48.432;11.350;2023-05-31T11:51:56;20.30;56.20
47779;DHT22;33538;48.432;11.350;2023-05-31T11:54:31;20.40;56.50
47779;DHT22;33538;48.432;11.350;2023-05-31T11:57:02;20.40;56.00
47779;DHT22;33538;48.432;11.350;2023-05-31T11:59:30;20.40;56.10
47779;DHT22;33538;48.432;11.350;2023-05-31T12:01:58;20.40;56.10
47779;DHT22;33538;48.432;11.350;2023-05-31T12:04:33;20.40;55.70
47779;DHT22;33538;48.432;11.350;2023-05-31T12:07:00;20.50;55.00
47779;DHT22;33538;48.432;11.350;2023-05-31T12:09:27;20.50;55.30
47779;DHT22;33538;48.432;11.350;2023-05-31T12:11:55;20.50;55.60
47779;DHT22;33538;48.432;11.350;2023-05-31T12:14:24;20.50;55.70
47779;DHT22;33538;48.432;11.350;2023-05-31T12:16:51;20.50;55.80
47779;DHT22;33538;48.432;11.350;2023-05-31T12:19:18;20.50;56.10
47779;DHT22;33538;48.432;11.350;2023-05-31T12:21:44;20.50;56.30
47779;DHT22;33538;48.432;11.350;2023-05-31T12:24:12;20.50;56.30
47779;DHT22;33538;48.432;11.350;2023-05-31T12:26:39;20.50;55.90
47779;DHT22;33538;48.432;11.350;2023-05-31T12:29:06;20.80;54.80
47779;DHT22;33538;48.432;11.350;2023-05-31T12:31:36;20.70;55.50
47779;DHT22;33538;48.432;11.350;2023-05-31T12:34:07;20.60;56.00
47779;DHT22;33538;48.432;11.350;2023-05-31T12:36:38;20.70;56.30
47779;DHT22;33538;48.432;11.350;2023-05-31T12:39:07;20.60;56.30
47779;DHT22;33538;48.432;11.350;2023-05-31T12:41:35;20.70;56.10
47779;DHT22;33538;48.432;11.350;2023-05-31T12:44:01;20.70;56.20
47779;DHT22;33538;48.432;11.350;2023-05-31T12:46:37;20.70;55.90
47779;DHT22;33538;48.432;11.350;2023-05-31T12:49:13;20.70;55.90
47779;DHT22;33538;48.432;11.350;2023-05-31T12:51:41;20.80;55.00
47779;DHT22;33538;48.432;11.350;2023-05-31T12:54:11;20.70;55.40
47779;DHT22;33538;48.432;11.350;2023-05-31T12:56:38;20.80;55.10
47779;DHT22;33538;48.432;11.350;2023-05-31T12:59:05;20.80;55.60
47779;DHT22;33538;48.432;11.350;2023-05-31T13:01:32;20.80;55.10
47779;DHT22;33538;48.432;11.350;2023-05-31T13:04:01;20.90;55.20
47779;DHT22;33538;48.432;11.350;2023-05-31T13:06:27;20.80;55.20
47779;DHT22;33538;48.432;11.350;2023-05-31T13:08:54;20.80;55.70
47779;DHT22;33538;48.432;11.350;2023-05-31T13:11:21;20.80;55.80
47779;DHT22;33538;48.432;11.350;2023-05-31T13:13:48;20.80;56.00
47779;DHT22;33538;48.432;11.350;2023-05-31T13:16:15;20.90;55.70
47779;DHT22;33538;48.432;11.350;2023-05-31T13:18:41;20.90;56.30
47779;DHT22;33538;48.432;11.350;2023-05-31T13:21:09;20.80;56.10
47779;DHT22;33538;48.432;11.350;2023-05-31T13:23:36;20.80;56.00
47779;DHT22;33538;48.432;11.350;2023-05-31T13:26:03;20.80;56.30
47779;DHT22;33538;48.432;11.350;2023-05-31T13:28:30;20.90;56.30
47779;DHT22;33538;48.432;11.350;2023-05-31T13:30:57;20.90;55.70
47779;DHT22;33538;48.432;11.350;2023-05-31T13:33:24;20.90;55.70
47779;DHT22;33538;48.432;11.350;2023-05-31T13:35:51;20.90;56.00
47779;DHT22;33538;48.432;11.350;2023-05-31T13:38:19;20.90;56.20
47779;DHT22;33538;48.432;11.350;2023-05-31T13:40:46;20.90;56.20
47779;DHT22;33538;48.432;11.350;2023-05-31T13:43:13;20.90;56.40
47779;DHT22;33538;48.432;11.350;2023-05-31T13:45:39;20.90;56.50
47779;DHT22;33538;48.432;11.350;2023-05-31T13:48:06;20.90;56.60
47779;DHT22;33538;48.432;11.350;2023-05-31T13:50:33;20.90;56.70
47779;DHT22;33538;48.432;11.350;2023-05-31T13:53:00;20.90;56.50
47779;DHT22;33538;48.432;11.350;2023-05-31T13:55:28;21.00;56.40
47779;DHT22;33538;48.432;11.350;2023-05-31T13:57:55;21.00;56.50
47779;DHT22;33538;48.432;11.350;2023-05-31T14:00:22;21.00;56.50
47779;DHT22;33538;48.432;11.350;2023-05-31T14:02:48;21.00;56.70
47779;DHT22;33538;48.432;11.350;2023-05-31T14:05:15;21.10;56.40
47779;DHT22;33538;48.432;11.350;2023-05-31T14:07:42;21.00;56.60
47779;DHT22;33538;48.432;11.350;2023-05-31T14:10:10;21.10;56.70
47779;DHT22;33538;48.432;11.350;2023-05-31T14:12:38;21.10;56.70
47779;DHT22;33538;48.432;11.350;2023-05-31T14:15:05;21.20;56.20
47779;DHT22;33538;48.432;11.350;2023-05-31T14:17:32;21.20;56.20
47779;DHT22;33538;48.432;11.350;2023-05-31T14:19:59;21.30;55.60
47779;DHT22;33538;48.432;11.350;2023-05-31T14:22:26;21.20;55.90
47779;DHT22;33538;48.432;11.350;2023-05-31T14:24:53;21.20;55.90
47779;DHT22;33538;48.432;11.350;2023-05-31T14:27:20;21.20;56.00
47779;DHT22;33538;48.432;11.350;2023-05-31T14:29:48;21.30;55.90
47779;DHT22;33538;48.432;11.350;2023-05-31T14:32:15;21.20;56.10
47779;DHT22;33538;48.432;11.350;2023-05-31T14:34:43;21.20;56.20
47779;DHT22;33538;48.432;11.350;2023-05-31T14:37:11;21.20;56.30
47779;DHT22;33538;48.432;11.350;2023-05-31T14:39:44;21.20;56.20
47779;DHT22;33538;48.432;11.350;2023-05-31T14:42:11;21.20;56.30
47779;DHT22;33538;48.432;11.350;2023-05-31T14:44:38;21.20;56.30
47779;DHT22;33538;48.432;11.350;2023-05-31T14:47:06;21.30;56.30
47779;DHT22;33538;48.432;11.350;2023-05-31T14:49:33;21.30;56.40
47779;DHT22;33538;48.432;11.350;2023-05-31T14:52:00;21.30;56.40
47779;DHT22;33538;48.432;11.350;2023-05-31T14:54:27;21.30;56.40
47779;DHT22;33538;48.432;11.350;2023-05-31T14:56:53;21.30;56.00
47779;DHT22;33538;48.432;11.350;2023-05-31T14:59:20;21.50;55.10
47779;DHT22;33538;48.432;11.350;2023-05-31T15:01:47;21.50;55.30
47779;DHT22;33538;48.432;11.350;2023-05-31T15:04:15;21.40;55.60
47779;DHT22;33538;48.432;11.350;2023-05-31T15:06:42;21.40;55.60
47779;DHT22;33538;48.432;11.350;2023-05-31T15:09:09;21.40;55.70
47779;DHT22;33538;48.432;11.350;2023-05-31T15:11:36;21.40;55.60
47779;DHT22;33538;48.432;11.350;2023-05-31T15:14:03;21.50;55.90
47779;DHT22;33538;48.432;11.350;2023-05-31T15:16:34;21.50;55.80
47779;DHT22;33538;48.432;11.350;2023-05-31T15:19:01;21.50;55.80
47779;DHT22;33538;48.432;11.350;2023-05-31T15:21:29;21.50;55.90
47779;DHT22;33538;48.432;11.350;2023-05-31T15:23:56;21.50;55.40
47779;DHT22;33538;48.432;11.350;2023-05-31T15:26:23;21.50;55.40
47779;DHT22;33538;48.432;11.350;2023-05-31T15:28:50;21.60;55.00